Time;durP1;ratioP1;P1;durP2;ratioP2;P2;SDS_P1;SDS_P2;PMS_P1;PMS_P2;Temp;Humidity;BMP_temperature;BMP_pressure;BME280_temperature;BME280_humidity;BME280_pressure;Samples;Min_cycle;Max_cycle;Signal;HPM_P1;HPM_P2
2022/01/23 00:00:43;;;;;;;13.82;6.43;;;6.20;99.90;;;;;;4892738;28;20046;-95
2022/01/23 00:03:16;;;;;;;16.00;6.53;;;6.20;99.90;;;;;;4920373;28;20042;-95
2022/01/23 00:06:11;;;;;;;10.93;6.05;;;6.10;99.90;;;;;;4925070;28;20157;-96
2022/01/23 00:09:32;;;;;;;;;;;;;;;;;;;;;
2022/01/23 00:12:24;;;;;;;12.75;6.28;;;6.20;99.90;;;;;;4962896;28;20058;-96
2022/01/23 00:34:40;;;;;;;14.27;6.32;;;6.20;99.90;;;;;;4835426;29;20608;-95
2022/01/23 00:48:35;;;;;;;12.40;6.20;;;6.10;99.90;;;;;;4850125;29;20223;-95
2022/01/23 00:52:03;;;;;;;13.48;6.10;;;6.10;99.90;;;;;;4778499;29;20401;-96
2022/01/23 00:54:35;;;;;;;12.77;6.53;;;6.20;99.90;;;;;;4733101;29;20061;-95
2022/01/23 00:57:07;;;;;;;14.25;5.78;;;6.20;99.90;;;;;;4715371;30;20039;-94
2022/01/23 00:59:36;;;;;;;11.70;6.32;;;6.10;99.90;;;;;;4708592;30;20086;-95
2022/01/23 01:02:03;;;;;;;12.07;6.50;;;6.20;99.90;;;;;;4708537;30;20750;-96
2022/01/23 01:04:39;;;;;;;9.85;5.80;;;6.20;99.90;;;;;;4729571;29;20380;-95
2022/01/23 01:07:07;;;;;;;13.18;6.30;;;6.20;99.90;;;;;;4838707;29;20052;-94
2022/01/23 01:09:36;;;;;;;11.93;6.55;;;6.10;99.90;;;;;;4854239;29;20144;-95
2022/01/23 01:12:07;;;;;;;12.20;6.60;;;6.20;99.90;;;;;;4858069;29;20055;-95
2022/01/23 01:15:00;;;;;;;18.15;7.63;;;6.10;99.90;;;;;;4845258;28;20170;-95
2022/01/23 01:30:58;;;;;;;12.18;6.45;;;6.10;99.90;;;;;;4958681;28;20049;-95
2022/01/23 01:39:22;;;;;;;13.23;6.20;;;6.10;99.90;;;;;;4979072;28;20085;-95
2022/01/23 01:45:11;;;;;;;14.32;6.95;;;6.10;99.90;;;;;;4857060;29;20134;-96
2022/01/23 01:48:00;;;;;;;14.38;7.05;;;6.20;99.90;;;;;;4962873;28;20057;-96
2022/01/23 01:51:05;;;;;;;;;;;;;;;;;;;;;
2022/01/23 01:54:15;;;;;;;;;;;;;;;;;;;;;
2022/01/23 02:09:08;;;;;;;;;;;;;;;;;;;;;
2022/01/23 02:12:23;;;;;;;14.50;7.50;;;5.80;99.90;;;;;;4882828;29;20083;-94
2022/01/23 02:57:07;;;;;;;13.50;7.18;;;5.90;99.90;;;;;;4934424;28;20394;-94
2022/01/23 02:59:36;;;;;;;13.55;7.03;;;6.00;99.90;;;;;;4901245;28;20038;-93
2022/01/23 03:02:26;;;;;;;16.75;7.43;;;6.00;99.90;;;;;;4924986;28;20494;-94
2022/01/23 03:05:00;;;;;;;13.93;7.25;;;5.70;99.90;;;;;;4917450;28;20390;-95
2022/01/23 03:08:45;;;;;;;15.30;7.28;;;5.90;99.90;;;;;;4937664;28;20803;-94
2022/01/23 03:28:59;;;;;;;;;;;;;;;;;;;;;
2022/01/23 03:34:59;;;;;;;17.75;8.48;;;6.10;99.90;;;;;;4970228;28;20275;-95
2022/01/23 03:37:26;;;;;;;15.57;8.68;;;6.00;99.90;;;;;;4968038;28;20049;-94
2022/01/23 03:39:52;;;;;;;16.30;8.65;;;6.00;99.90;;;;;;4940857;28;20127;-93
2022/01/23 03:42:27;;;;;;;14.27;7.55;;;5.90;99.90;;;;;;4961804;28;20089;-94
2022/01/23 03:50:48;;;;;;;16.73;8.90;;;5.90;99.90;;;;;;4936900;28;20049;-95
2022/01/23 03:53:18;;;;;;;;;;;5.90;99.90;;;;;;4947434;28;20594;-96
2022/01/23 03:56:07;;;;;;;13.02;8.10;;;6.00;99.90;;;;;;4987292;28;19925;-96
2022/01/23 03:58:36;;;;;;;15.38;8.27;;;5.90;99.90;;;;;;4970542;28;20233;-95
2022/01/23 04:01:05;;;;;;;13.77;8.38;;;6.00;99.90;;;;;;4977353;28;20500;-95
2022/01/23 04:04:15;;;;;;;14.65;8.40;;;6.00;99.90;;;;;;4974665;28;20517;-96
2022/01/23 04:06:51;;;;;;;17.17;8.80;;;6.00;99.90;;;;;;4978659;28;20103;-96
2022/01/23 04:09:22;;;;;;;12.70;7.82;;;5.90;99.90;;;;;;4951583;28;20491;-96
2022/01/23 04:12:08;;;;;;;14.52;8.60;;;5.90;99.90;;;;;;4957131;28;20072;-96
2022/01/23 04:14:51;;;;;;;13.90;8.40;;;6.10;99.90;;;;;;4972503;28;20298;-95
2022/01/23 04:34:31;;;;;;;16.80;9.77;;;5.90;99.90;;;;;;4968718;28;20539;-95
2022/01/23 04:45:44;;;;;;;17.20;9.52;;;5.90;99.90;;;;;;4920748;28;20046;-94
2022/01/23 04:49:05;;;;;;;16.10;9.80;;;5.90;99.90;;;;;;4930561;28;20087;-95
2022/01/23 05:00:46;;;;;;;;;;;;;;;;;;;;;
2022/01/23 05:06:00;;;;;;;18.15;11.38;;;6.00;99.90;;;;;;4942755;28;20049;-95
2022/01/23 05:08:33;;;;;;;19.88;10.95;;;6.10;99.90;;;;;;4967978;28;20060;-95
2022/01/23 05:11:24;;;;;;;19.00;10.77;;;6.00;99.90;;;;;;4937194;28;20055;-95
2022/01/23 05:13:51;;;;;;;18.58;11.68;;;6.00;99.90;;;;;;4950055;28;20049;-95
2022/01/23 05:16:25;;;;;;;18.67;12.43;;;6.00;99.90;;;;;;4947026;28;20049;-96
2022/01/23 05:18:53;;;;;;;16.45;10.45;;;6.00;99.90;;;;;;4933692;28;20038;-94
2022/01/23 05:24:23;;;;;;;21.98;12.23;;;6.00;99.90;;;;;;4954493;28;20084;-95
2022/01/23 05:26:49;;;;;;;18.77;11.95;;;6.10;99.90;;;;;;4951226;28;20038;-95
2022/01/23 05:29:15;;;;;;;19.33;12.30;;;6.10;99.90;;;;;;4934474;28;20810;-95
2022/01/23 05:31:44;;;;;;;19.13;12.05;;;6.00;99.90;;;;;;4945338;28;20469;-95
2022/01/23 05:34:18;;;;;;;19.85;12.25;;;6.00;99.90;;;;;;4931936;28;20387;-95
2022/01/23 05:37:28;;;;;;;;;;;;;;;;;;;;;
2022/01/23 05:39:56;;;;;;;21.27;12.10;;;6.00;99.90;;;;;;4944614;28;19951;-95
2022/01/23 05:42:25;;;;;;;20.65;12.15;;;5.90;99.90;;;;;;4938358;28;20052;-95
2022/01/23 05:44:53;;;;;;;23.77;12.88;;;6.00;99.90;;;;;;4908463;28;20096;-96
2022/01/23 05:47:19;;;;;;;23.73;13.20;;;5.90;99.90;;;;;;4936766;28;20103;-95
2022/01/23 05:49:45;;;;;;;19.35;12.65;;;6.00;99.90;;;;;;4920566;28;20050;-94
2022/01/23 05:52:15;;;;;;;20.23;13.45;;;6.00;99.90;;;;;;4919655;28;20465;-95
2022/01/23 05:55:12;;;;;;;;;;;;;;;;;;;;;
2022/01/23 05:57:42;;;;;;;20.80;13.18;;;5.90;99.90;;;;;;4945554;28;20157;-94
2022/01/23 06:00:11;;;;;;;21.02;12.68;;;6.00;99.90;;;;;;4908525;28;20720;-96
2022/01/23 06:02:40;;;;;;;25.00;13.18;;;6.00;99.90;;;;;;4925334;28;20077;-95
2022/01/23 06:05:10;;;;;;;20.55;12.32;;;6.00;99.90;;;;;;4934616;28;20207;-96
2022/01/23 06:07:39;;;;;;;24.70;13.35;;;6.00;99.90;;;;;;4909896;28;20530;-95
2022/01/23 06:10:06;;;;;;;25.15;13.95;;;6.00;99.90;;;;;;4919744;28;20046;-94
2022/01/23 06:12:34;;;;;;;23.42;13.30;;;6.00;99.90;;;;;;4921950;28;20384;-95
2022/01/23 06:15:00;;;;;;;25.20;13.88;;;5.90;99.90;;;;;;4923417;28;20046;-94
2022/01/23 06:17:37;;;;;;;24.38;13.57;;;5.90;99.90;;;;;;4947948;28;20530;-95
2022/01/23 06:38:05;;;;;;;27.27;14.35;;;5.90;99.90;;;;;;4749035;29;20238;-96
2022/01/23 06:40:40;;;;;;;29.40;14.45;;;5.90;99.90;;;;;;4807552;29;20067;-95
2022/01/23 06:43:41;;;;;;;;;;;;;;;;;;;;;
2022/01/23 06:46:20;;;;;;;29.25;14.82;;;5.90;99.90;;;;;;4896172;28;20398;-95
2022/01/23 06:49:54;;;;;;;28.10;14.52;;;5.90;99.90;;;;;;4868799;28;20295;-96
2022/01/23 06:52:23;;;;;;;29.58;15.63;;;5.90;99.90;;;;;;4813333;29;20053;-96
2022/01/23 06:55:12;;;;;;;28.67;15.00;;;5.90;99.90;;;;;;4816606;28;20412;-96
2022/01/23 06:57:58;;;;;;;26.50;14.18;;;5.90;99.90;;;;;;4905702;28;20076;-94
2022/01/23 07:00:49;;;;;;;31.33;15.55;;;5.90;99.90;;;;;;4926543;28;20185;-96
2022/01/23 07:03:24;;;;;;;31.27;15.20;;;5.90;99.90;;;;;;4914638;28;20046;-95
2022/01/23 07:06:12;;;;;;;;;;;;;;;;;;;;;
2022/01/23 07:08:46;;;;;;;38.25;14.27;;;5.90;99.90;;;;;;4982260;28;20409;-95
2022/01/23 07:11:12;;;;;;;29.42;14.30;;;5.90;99.90;;;;;;4944144;28;20332;-95
2022/01/23 07:18:26;;;;;;;;;;;;;;;;;;;;;
2022/01/23 07:21:37;;;;;;;27.90;14.13;;;6.00;99.90;;;;;;4922692;28;20623;-96
2022/01/23 07:25:05;;;;;;;26.60;13.70;;;6.00;99.90;;;;;;4940377;28;20061;-96
2022/01/23 07:32:28;;;;;;;25.13;13.75;;;5.90;99.90;;;;;;4912964;29;20049;-96
2022/01/23 07:35:40;;;;;;;26.25;13.18;;;5.90;99.90;;;;;;4880814;29;20573;-96
2022/01/23 07:38:43;;;;;;;23.48;13.07;;;6.00;99.90;;;;;;4928237;28;20055;-96
2022/01/23 07:41:21;;;;;;;;;;;;;;;;;;;;;
2022/01/23 07:47:36;;;;;;;22.80;13.52;;;6.00;99.90;;;;;;4911214;28;20482;-95
2022/01/23 07:50:28;;;;;;;24.63;13.23;;;5.90;99.90;;;;;;4946796;28;20033;-96
2022/01/23 07:52:54;;;;;;;24.90;13.40;;;6.00;99.90;;;;;;4950158;28;20132;-93
2022/01/23 07:55:22;;;;;;;25.63;14.15;;;5.90;99.90;;;;;;4956654;28;20045;-95
2022/01/23 07:58:04;;;;;;;24.98;13.75;;;5.90;99.90;;;;;;4970870;28;20046;-95
2022/01/23 08:00:34;;;;;;;24.98;13.73;;;5.90;99.90;;;;;;4986475;28;20119;-95
2022/01/23 08:03:02;;;;;;;23.90;13.90;;;6.00;99.90;;;;;;4951700;28;20087;-93
2022/01/23 08:05:31;;;;;;;22.85;14.23;;;6.00;99.90;;;;;;4929202;28;20041;-93
2022/01/23 08:08:04;;;;;;;22.88;13.82;;;6.00;99.90;;;;;;4959724;28;20451;-96
2022/01/23 08:10:55;;;;;;;21.90;13.63;;;6.10;99.90;;;;;;4951411;28;20459;-96
2022/01/23 08:17:14;;;;;;;23.33;13.68;;;6.10;99.90;;;;;;4906689;29;20071;-94
2022/01/23 08:20:08;;;;;;;22.80;13.68;;;6.10;99.90;;;;;;4891881;29;20147;-96
2022/01/23 08:23:23;;;;;;;24.92;13.70;;;6.20;99.90;;;;;;4839868;29;20052;-96
2022/01/23 08:33:49;;;;;;;19.90;12.68;;;6.20;99.90;;;;;;4802235;29;20078;-96
2022/01/23 08:36:44;;;;;;;21.70;13.98;;;6.20;99.90;;;;;;4812955;29;20071;-93
2022/01/23 08:39:31;;;;;;;;;;;;;;;;;;;;;
2022/01/23 08:42:06;;;;;;;22.10;13.23;;;6.30;99.90;;;;;;4874358;29;20615;-93
2022/01/23 08:44:35;;;;;;;22.35;13.18;;;6.30;99.90;;;;;;4894834;28;20085;-95
2022/01/23 08:47:02;;;;;;;19.77;12.80;;;6.30;99.90;;;;;;4915490;28;20123;-96
2022/01/23 08:49:33;;;;;;;22.65;13.32;;;6.30;99.90;;;;;;4942071;28;20048;-96
2022/01/23 08:52:12;;;;;;;22.33;12.88;;;6.40;99.90;;;;;;4969410;28;20597;-96
2022/01/23 08:55:08;;;;;;;20.90;12.18;;;6.40;99.90;;;;;;4935244;28;20195;-96
2022/01/23 08:58:23;;;;;;;;;;;;;;;;;;;;;
2022/01/23 09:00:49;;;;;;;21.40;12.35;;;6.50;99.90;;;;;;4948873;28;20057;-93
2022/01/23 09:03:18;;;;;;;18.83;12.18;;;6.60;99.90;;;;;;4941283;28;20053;-96
2022/01/23 09:05:47;;;;;;;22.88;12.25;;;6.60;99.90;;;;;;4954911;28;20111;-92
2022/01/23 09:08:21;;;;;;;20.58;12.70;;;6.70;99.90;;;;;;4930602;28;20672;-96
2022/01/23 09:10:55;;;;;;;19.95;12.25;;;6.60;99.90;;;;;;4961960;28;20052;-95
2022/01/23 09:13:40;;;;;;;17.98;11.65;;;6.70;99.90;;;;;;4932415;28;20045;-96
2022/01/23 09:16:09;;;;;;;18.48;11.55;;;6.70;99.90;;;;;;4978038;28;20046;-95
2022/01/23 09:18:35;;;;;;;18.40;11.70;;;6.70;99.90;;;;;;4938809;28;20600;-94
2022/01/23 09:21:01;;;;;;;17.20;10.95;;;6.70;99.90;;;;;;4953616;28;20057;-93
2022/01/23 09:23:30;;;;;;;18.10;11.60;;;6.80;99.90;;;;;;4958082;28;20052;-94
2022/01/23 09:26:08;;;;;;;19.98;11.25;;;6.80;99.90;;;;;;4949387;28;20248;-92
2022/01/23 09:28:39;;;;;;;16.77;10.77;;;6.80;99.90;;;;;;4940495;28;20045;-94
2022/01/23 09:31:10;;;;;;;18.55;10.95;;;6.90;99.90;;;;;;4931401;28;20972;-94
2022/01/23 09:33:38;;;;;;;16.70;11.10;;;6.90;99.90;;;;;;4940830;28;20041;-94
2022/01/23 09:36:04;;;;;;;19.00;11.80;;;7.00;99.90;;;;;;4937421;28;20319;-92
2022/01/23 09:38:30;;;;;;;16.40;10.57;;;7.00;99.90;;;;;;4937385;28;20044;-93
2022/01/23 09:41:17;;;;;;;19.20;10.95;;;7.00;99.90;;;;;;4941498;28;20330;-95
2022/01/23 09:44:07;;;;;;;18.88;11.65;;;7.10;99.90;;;;;;4954291;28;20053;-96
2022/01/23 09:46:36;;;;;;;18.10;11.25;;;7.10;99.90;;;;;;4962030;28;20630;-94
2022/01/23 09:49:02;;;;;;;16.23;10.23;;;7.20;99.90;;;;;;4942809;28;20048;-89
2022/01/23 09:51:29;;;;;;;14.20;8.88;;;7.20;99.90;;;;;;4933454;28;20049;-94
2022/01/23 09:53:58;;;;;;;14.85;9.77;;;7.30;99.90;;;;;;4944415;28;20361;-94
2022/01/23 09:56:30;;;;;;;13.73;9.80;;;7.30;99.90;;;;;;4915550;28;20045;-92
2022/01/23 09:59:19;;;;;;;15.80;10.88;;;7.30;99.90;;;;;;4922306;28;20049;-96
2022/01/23 10:01:53;;;;;;;18.58;11.07;;;7.40;99.90;;;;;;4949148;28;20049;-94
2022/01/23 10:04:23;;;;;;;15.75;10.57;;;7.50;99.90;;;;;;4941113;28;20188;-95
2022/01/23 10:06:49;;;;;;;15.30;10.52;;;7.40;99.90;;;;;;4954063;28;20103;-95
2022/01/23 10:09:15;;;;;;;16.98;10.40;;;7.40;99.90;;;;;;4934025;28;20588;-93
2022/01/23 10:11:50;;;;;;;16.30;11.23;;;7.40;99.90;;;;;;4936807;28;20041;-94
2022/01/23 10:14:19;;;;;;;16.65;11.10;;;7.50;99.90;;;;;;5380574;22;20506;-95
2022/01/23 10:20:02;;;;;;;14.77;10.95;;;7.40;99.90;;;;;;4957732;28;20088;-94
2022/01/23 10:22:29;;;;;;;13.95;10.38;;;7.50;99.90;;;;;;4952552;28;20053;-94
2022/01/23 10:25:16;;;;;;;14.48;11.02;;;7.50;99.90;;;;;;4974384;28;20103;-96
2022/01/23 10:28:21;;;;;;;;;;;;;;;;;;;;;
2022/01/23 10:30:56;;;;;;;15.93;11.48;;;7.60;99.90;;;;;;4978739;28;20076;-92
2022/01/23 10:33:29;;;;;;;16.92;11.73;;;7.50;99.90;;;;;;4947347;28;20427;-94
2022/01/23 10:36:10;;;;;;;15.63;9.57;;;7.60;99.90;;;;;;4952807;28;20037;-94
2022/01/23 10:39:03;;;;;;;16.60;11.25;;;7.50;99.90;;;;;;4943688;28;20566;-91
2022/01/23 10:50:09;;;;;;;14.75;10.55;;;7.70;99.90;;;;;;4966727;28;20053;-92
2022/01/23 10:52:40;;;;;;;14.77;10.68;;;7.60;99.90;;;;;;4966195;28;20072;-93
2022/01/23 10:55:12;;;;;;;18.65;11.60;;;7.70;99.90;;;;;;4962764;28;20054;-93
2022/01/23 10:57:46;;;;;;;16.02;11.73;;;7.80;99.90;;;;;;4948043;28;20052;-96
2022/01/23 11:00:36;;;;;;;16.35;10.75;;;7.80;99.90;;;;;;4961386;28;20099;-94
2022/01/23 11:03:23;;;;;;;15.02;9.80;;;7.80;99.90;;;;;;4948293;28;20044;-93
2022/01/23 11:05:52;;;;;;;14.38;10.23;;;7.90;99.90;;;;;;4964573;28;20613;-94
2022/01/23 11:08:26;;;;;;;15.25;10.20;;;7.90;99.90;;;;;;4944516;28;20156;-94
2022/01/23 11:11:00;;;;;;;14.80;9.65;;;8.00;99.90;;;;;;4964920;28;20476;-93
2022/01/23 11:19:24;;;;;;;12.38;8.13;;;7.90;99.90;;;;;;4943171;28;20054;-94
2022/01/23 11:21:54;;;;;;;12.57;8.15;;;8.00;99.90;;;;;;4914994;28;20038;-94
2022/01/23 11:24:45;;;;;;;13.68;9.07;;;8.00;99.90;;;;;;4945885;28;20129;-96
2022/01/23 11:27:12;;;;;;;14.63;9.07;;;8.00;99.90;;;;;;4879850;28;20133;-94
2022/01/23 11:29:58;;;;;;;13.30;7.97;;;8.00;99.90;;;;;;4955526;28;20630;-94
2022/01/23 11:32:29;;;;;;;9.30;6.43;;;8.10;99.90;;;;;;4977197;28;20078;-94
2022/01/23 11:35:07;;;;;;;11.13;6.88;;;8.10;99.90;;;;;;4952233;28;20049;-93
2022/01/23 11:37:33;;;;;;;9.68;6.20;;;8.10;99.90;;;;;;4908687;28;20418;-94
2022/01/23 11:40:09;;;;;;;11.48;6.97;;;8.20;99.90;;;;;;4934180;28;20730;-94
2022/01/23 11:51:18;;;;;;;10.65;6.55;;;8.10;99.90;;;;;;4938311;28;20053;-91
2022/01/23 11:56:36;;;;;;;9.40;6.25;;;8.10;99.90;;;;;;4968572;28;20050;-93
2022/01/23 11:59:33;;;;;;;10.37;6.37;;;8.10;99.90;;;;;;4910283;28;20135;-95
2022/01/23 12:02:11;;;;;;;10.95;5.78;;;8.10;99.90;;;;;;4958185;28;20914;-92
2022/01/23 12:04:58;;;;;;;8.52;5.60;;;8.10;99.90;;;;;;4926219;28;20050;-94
2022/01/23 12:07:26;;;;;;;9.93;5.80;;;8.00;99.90;;;;;;4937728;28;20054;-95
2022/01/23 12:10:32;;;;;;;9.35;6.22;;;8.00;99.90;;;;;;4927686;28;20420;-94
2022/01/23 12:16:34;;;;;;;8.95;5.32;;;7.90;99.90;;;;;;4911225;28;20453;-94
2022/01/23 12:19:27;;;;;;;12.40;6.78;;;7.80;99.90;;;;;;4928671;28;20042;-92
2022/01/23 12:22:01;;;;;;;9.27;6.18;;;7.70;99.90;;;;;;4936869;28;20448;-96
2022/01/23 12:24:49;;;;;;;13.15;7.32;;;7.70;99.90;;;;;;4962513;28;20397;-96
2022/01/23 12:27:32;;;;;;;9.48;6.07;;;7.80;99.90;;;;;;5007364;23;20525;-94
2022/01/23 12:30:23;;;;;;;11.37;6.17;;;7.90;99.90;;;;;;4940474;28;20049;-96
2022/01/23 12:33:10;;;;;;;11.32;6.25;;;7.70;99.90;;;;;;4974531;28;20041;-95
2022/01/23 12:35:46;;;;;;;11.10;5.72;;;7.80;99.90;;;;;;4963155;28;20041;-94
2022/01/23 12:38:13;;;;;;;6.65;2.90;;;7.70;99.90;;;;;;4950940;28;20047;-93
2022/01/23 12:43:56;;;;;;;4.57;2.22;;;7.70;99.90;;;;;;4967008;28;20064;-93
2022/01/23 12:46:31;;;;;;;3.72;1.70;;;7.70;99.90;;;;;;4946309;28;20981;-96
2022/01/23 12:49:00;;;;;;;5.65;2.70;;;7.70;99.90;;;;;;4949306;28;20115;-94
2022/01/23 12:51:32;;;;;;;7.68;3.33;;;7.60;99.90;;;;;;4970545;28;20660;-93
2022/01/23 12:53:58;;;;;;;2.63;1.33;;;7.60;99.90;;;;;;4974118;28;20041;-95
2022/01/23 12:56:35;;;;;;;4.15;1.67;;;7.40;99.90;;;;;;4958335;28;20222;-94
2022/01/23 12:59:15;;;;;;;4.63;1.80;;;7.40;99.90;;;;;;4969162;28;20091;-95
2022/01/23 13:01:54;;;;;;;3.65;1.60;;;7.40;99.90;;;;;;4972453;28;20099;-95
2022/01/23 13:04:29;;;;;;;3.28;1.50;;;7.40;99.90;;;;;;4953249;28;20049;-93
2022/01/23 13:07:07;;;;;;;3.65;1.83;;;7.40;99.90;;;;;;4961684;28;20045;-94
2022/01/23 13:09:57;;;;;;;3.13;1.50;;;7.40;99.90;;;;;;4954412;28;20836;-95
2022/01/23 13:12:46;;;;;;;7.65;3.00;;;7.40;99.90;;;;;;4968063;28;20049;-96
2022/01/23 13:31:59;;;;;;;14.93;6.28;;;7.40;99.90;;;;;;5002482;28;20067;-91
2022/01/23 13:34:38;;;;;;;8.73;5.10;;;7.40;99.90;;;;;;4986016;28;20531;-95
2022/01/23 13:37:33;;;;;;;9.85;5.65;;;7.40;99.90;;;;;;4989281;28;20072;-94
2022/01/23 13:40:08;;;;;;;10.00;5.75;;;7.40;99.90;;;;;;4958688;28;20669;-94
2022/01/23 13:54:19;;;;;;;8.35;4.07;;;7.30;99.90;;;;;;4975756;28;20419;-93
2022/01/23 14:02:18;;;;;;;7.07;3.67;;;7.30;99.90;;;;;;4975845;28;20030;-94
2022/01/23 14:04:49;;;;;;;12.93;3.78;;;7.30;99.90;;;;;;4984925;28;20075;-90
2022/01/23 14:07:24;;;;;;;6.57;2.92;;;7.30;99.90;;;;;;4961315;28;20510;-92
2022/01/23 14:09:50;;;;;;;13.52;3.30;;;7.20;99.90;;;;;;4972761;28;20131;-93
2022/01/23 14:12:21;;;;;;;9.93;2.42;;;7.20;99.90;;;;;;4978797;28;20816;-92
2022/01/23 14:15:05;;;;;;;4.57;2.10;;;7.20;99.90;;;;;;4991972;28;20045;-94
2022/01/23 14:17:36;;;;;;;7.25;2.10;;;7.10;99.90;;;;;;4965825;28;20053;-95
2022/01/23 14:20:05;;;;;;;6.82;2.13;;;7.10;99.90;;;;;;4934993;28;20052;-93
2022/01/23 14:22:37;;;;;;;7.18;2.30;;;7.20;99.90;;;;;;4965383;28;20057;-94
2022/01/23 14:25:17;;;;;;;5.03;2.40;;;7.20;99.90;;;;;;4978853;28;20506;-95
2022/01/23 14:28:00;;;;;;;6.97;2.60;;;7.20;99.90;;;;;;4967061;28;20514;-94
2022/01/23 14:30:30;;;;;;;21.95;3.33;;;7.10;99.90;;;;;;4946833;28;20583;-92
2022/01/23 14:33:15;;;;;;;5.60;2.13;;;7.10;99.90;;;;;;4970404;28;20156;-92
2022/01/23 14:35:41;;;;;;;4.60;2.00;;;7.10;99.90;;;;;;4974248;28;20052;-93
2022/01/23 14:38:13;;;;;;;5.53;1.80;;;7.10;99.90;;;;;;4934288;28;20088;-91
2022/01/23 14:40:51;;;;;;;5.25;1.90;;;7.10;99.90;;;;;;4962640;28;20041;-93
2022/01/23 14:43:17;;;;;;;4.82;1.92;;;7.00;99.90;;;;;;4976783;28;20045;-95
2022/01/23 14:45:46;;;;;;;9.98;2.15;;;7.00;99.90;;;;;;4959922;28;20366;-93
2022/01/23 14:48:14;;;;;;;6.30;2.00;;;7.10;99.90;;;;;;4957149;28;20055;-94
2022/01/23 14:50:50;;;;;;;22.80;2.85;;;7.00;99.90;;;;;;4958647;28;20436;-95
2022/01/23 14:53:23;;;;;;;7.35;2.05;;;7.20;99.90;;;;;;4966256;28;20191;-95
2022/01/23 14:56:32;;;;;;;6.60;2.00;;;7.10;99.90;;;;;;4960696;28;20045;-96
2022/01/23 14:58:58;;;;;;;4.35;1.90;;;7.10;99.90;;;;;;4976101;28;20474;-94
2022/01/23 15:01:27;;;;;;;5.80;2.30;;;7.10;99.90;;;;;;4956935;28;20147;-95
2022/01/23 15:03:56;;;;;;;8.85;2.10;;;7.00;99.90;;;;;;4952949;28;20278;-95
2022/01/23 15:06:31;;;;;;;5.10;1.70;;;7.00;99.90;;;;;;4945422;28;20056;-95
2022/01/23 15:09:23;;;;;;;4.25;1.95;;;7.00;99.90;;;;;;4957105;28;20076;-94
2022/01/23 15:11:53;;;;;;;4.07;1.80;;;6.90;99.90;;;;;;4969832;28;20396;-93
2022/01/23 15:14:21;;;;;;;5.25;2.05;;;6.80;99.90;;;;;;4952863;28;21020;-91
2022/01/23 15:16:53;;;;;;;5.90;2.08;;;6.90;99.90;;;;;;4951602;28;20058;-94
2022/01/23 15:19:22;;;;;;;14.32;2.95;;;6.90;99.90;;;;;;4939228;28;20052;-94
2022/01/23 15:21:47;;;;;;;5.75;1.95;;;6.90;99.90;;;;;;4968279;28;20098;-93
2022/01/23 15:24:13;;;;;;;9.32;2.22;;;6.90;99.90;;;;;;4958127;28;20057;-90
2022/01/23 15:26:54;;;;;;;11.95;2.20;;;6.90;99.90;;;;;;4941212;28;20088;-95
2022/01/23 15:29:20;;;;;;;9.82;2.13;;;6.80;99.90;;;;;;4972915;28;20160;-94
2022/01/23 15:31:47;;;;;;;7.78;2.55;;;6.90;99.90;;;;;;4969452;28;20529;-92
2022/01/23 15:34:19;;;;;;;4.63;2.40;;;6.90;99.90;;;;;;4967735;28;20061;-95
2022/01/23 15:36:48;;;;;;;10.10;2.60;;;6.80;99.90;;;;;;4993298;28;20045;-96
2022/01/23 15:39:31;;;;;;;;;;;;;;;;;;;;;
2022/01/23 15:42:17;;;;;;;5.53;2.80;;;6.80;99.90;;;;;;4978276;28;20049;-95
2022/01/23 15:44:43;;;;;;;4.78;2.53;;;6.90;99.90;;;;;;4957682;28;20935;-90
2022/01/23 15:47:13;;;;;;;5.85;2.30;;;6.80;99.90;;;;;;4961222;28;20048;-93
2022/01/23 15:49:39;;;;;;;4.60;2.17;;;6.80;99.90;;;;;;4939126;28;20490;-93
2022/01/23 15:52:05;;;;;;;11.10;2.63;;;6.80;99.90;;;;;;4973395;28;20093;-92
2022/01/23 15:54:34;;;;;;;6.10;2.47;;;6.80;99.90;;;;;;4970433;28;20044;-93
2022/01/23 15:57:01;;;;;;;6.03;2.60;;;6.80;99.90;;;;;;4960977;28;20204;-94
2022/01/23 15:59:30;;;;;;;8.73;2.50;;;6.80;99.90;;;;;;4980005;28;20057;-93
2022/01/23 16:02:09;;;;;;;32.70;4.53;;;6.80;99.90;;;;;;4965612;28;20434;-94
2022/01/23 16:04:41;;;;;;;24.73;3.97;;;6.80;99.90;;;;;;4963438;28;20436;-95
2022/01/23 16:07:16;;;;;;;11.93;2.85;;;6.80;99.90;;;;;;4987400;28;20818;-96
2022/01/23 16:09:43;;;;;;;6.55;2.58;;;6.80;99.90;;;;;;4991043;28;20742;-95
2022/01/23 16:12:13;;;;;;;10.57;3.63;;;6.70;99.90;;;;;;4989312;28;20048;-96
2022/01/23 16:14:42;;;;;;;9.35;2.60;;;6.70;99.90;;;;;;4984705;28;20087;-95
2022/01/23 16:17:08;;;;;;;16.30;3.38;;;6.70;99.90;;;;;;4960295;28;20123;-92
2022/01/23 16:19:37;;;;;;;12.88;2.83;;;6.70;99.90;;;;;;4972246;28;20051;-91
2022/01/23 16:22:04;;;;;;;6.97;2.80;;;6.60;99.90;;;;;;4957635;28;20041;-93
2022/01/23 16:24:29;;;;;;;10.90;3.45;;;6.60;99.90;;;;;;4972686;28;20179;-93
2022/01/23 16:26:56;;;;;;;8.10;3.08;;;6.60;99.90;;;;;;4958732;28;20057;-93
2022/01/23 16:29:25;;;;;;;8.30;3.10;;;6.70;99.90;;;;;;4961112;28;20049;-91
2022/01/23 16:31:59;;;;;;;5.93;2.72;;;6.60;99.90;;;;;;4988511;28;20051;-92
2022/01/23 16:34:28;;;;;;;15.75;3.67;;;6.70;99.90;;;;;;4972512;28;20305;-95
2022/01/23 16:36:57;;;;;;;8.98;3.00;;;6.60;99.90;;;;;;4958430;28;20521;-94
2022/01/23 16:39:26;;;;;;;16.08;3.97;;;6.60;99.90;;;;;;4992558;28;20063;-94
2022/01/23 16:41:52;;;;;;;18.00;4.07;;;6.70;99.90;;;;;;4984014;28;20045;-94
2022/01/23 16:44:21;;;;;;;7.15;2.88;;;6.70;99.90;;;;;;4967417;28;20056;-94
2022/01/23 16:46:50;;;;;;;5.10;2.78;;;6.80;99.90;;;;;;4964153;28;20659;-95
2022/01/23 16:49:16;;;;;;;5.70;2.85;;;6.60;99.90;;;;;;4973453;28;20663;-94
2022/01/23 16:51:43;;;;;;;10.05;2.90;;;6.60;99.90;;;;;;4962133;28;20045;-95
2022/01/23 16:54:11;;;;;;;13.60;3.53;;;6.70;99.90;;;;;;4944395;28;20145;-94
2022/01/23 16:56:42;;;;;;;5.57;3.00;;;6.70;99.90;;;;;;4962686;28;20339;-95
2022/01/23 16:59:09;;;;;;;6.43;2.70;;;6.70;99.90;;;;;;4961335;28;20402;-95
2022/01/23 17:01:35;;;;;;;4.53;2.38;;;6.70;99.90;;;;;;4964021;28;20045;-90
2022/01/23 17:04:05;;;;;;;5.13;2.60;;;6.70;99.90;;;;;;4960551;28;20486;-93
2022/01/23 17:06:38;;;;;;;7.22;3.08;;;6.80;99.90;;;;;;4974779;28;20161;-89
2022/01/23 17:09:07;;;;;;;5.70;2.63;;;6.70;99.90;;;;;;4960080;28;20052;-89
2022/01/23 17:11:34;;;;;;;6.68;2.70;;;6.60;99.90;;;;;;4959927;28;20131;-92
2022/01/23 17:14:00;;;;;;;5.60;2.65;;;6.60;99.90;;;;;;4945363;28;21057;-93
2022/01/23 17:16:31;;;;;;;15.00;3.08;;;6.50;99.90;;;;;;4947298;28;20044;-93
2022/01/23 17:19:00;;;;;;;11.82;3.17;;;6.50;99.90;;;;;;4963132;28;20370;-93
2022/01/23 17:21:29;;;;;;;8.93;3.25;;;6.60;99.90;;;;;;4957338;28;20045;-92
2022/01/23 17:23:55;;;;;;;5.47;2.50;;;6.60;99.90;;;;;;4959890;28;20096;-95
2022/01/23 17:26:23;;;;;;;12.02;2.80;;;6.50;99.90;;;;;;4978697;28;20084;-95
2022/01/23 17:28:49;;;;;;;7.43;2.90;;;6.60;99.90;;;;;;4976687;28;20401;-95
2022/01/23 17:31:15;;;;;;;7.97;2.78;;;6.50;99.90;;;;;;4976260;28;20041;-93
2022/01/23 17:33:41;;;;;;;9.27;2.97;;;6.50;99.90;;;;;;4959194;28;20399;-93
2022/01/23 17:36:07;;;;;;;4.40;2.30;;;6.50;99.90;;;;;;4962992;28;20050;-94
2022/01/23 17:38:36;;;;;;;8.73;2.70;;;6.50;99.90;;;;;;4946913;28;20041;-94
2022/01/23 17:41:03;;;;;;;4.65;2.53;;;6.50;99.90;;;;;;4948092;28;20155;-94
2022/01/23 17:43:29;;;;;;;8.98;2.58;;;6.60;99.90;;;;;;4950629;28;20575;-93
2022/01/23 17:45:55;;;;;;;6.03;2.70;;;6.60;99.90;;;;;;4985388;28;20045;-93
2022/01/23 17:51:05;;;;;;;5.25;2.53;;;6.60;99.90;;;;;;4989822;28;20472;-94
2022/01/23 17:53:33;;;;;;;4.57;2.35;;;6.50;99.90;;;;;;4955968;28;20411;-94
2022/01/23 17:55:59;;;;;;;5.25;2.50;;;6.40;99.90;;;;;;4967551;28;20444;-92
2022/01/23 17:58:28;;;;;;;10.80;3.45;;;6.40;99.90;;;;;;4969635;28;20057;-93
2022/01/23 18:00:54;;;;;;;5.38;3.00;;;6.60;99.90;;;;;;4951124;28;20061;-94
2022/01/23 18:03:21;;;;;;;6.85;3.15;;;6.50;99.90;;;;;;4976279;28;20068;-92
2022/01/23 18:05:48;;;;;;;5.72;2.90;;;6.50;99.90;;;;;;4979057;28;20045;-93
2022/01/23 18:08:16;;;;;;;6.25;3.20;;;6.50;99.90;;;;;;4951636;28;20460;-94
2022/01/23 18:10:42;;;;;;;5.40;3.00;;;6.40;99.90;;;;;;4941761;28;20484;-94
2022/01/23 18:13:12;;;;;;;5.93;2.92;;;6.40;99.90;;;;;;4959563;28;20201;-93
2022/01/23 18:15:39;;;;;;;6.38;2.95;;;6.40;99.90;;;;;;4956742;28;20114;-93
2022/01/23 18:18:11;;;;;;;6.20;2.55;;;6.40;99.90;;;;;;4961242;28;20052;-94
2022/01/23 18:20:39;;;;;;;7.57;2.97;;;6.40;99.90;;;;;;4964869;28;20047;-93
2022/01/23 18:23:11;;;;;;;5.80;2.90;;;6.40;99.90;;;;;;4949741;28;20322;-94
2022/01/23 18:25:44;;;;;;;11.25;3.42;;;6.40;99.90;;;;;;4961576;28;20040;-94
2022/01/23 18:28:18;;;;;;;14.63;3.95;;;6.40;99.90;;;;;;4985751;28;20064;-95
2022/01/23 18:30:45;;;;;;;9.48;4.05;;;6.40;99.90;;;;;;4967842;28;20047;-94
2022/01/23 18:33:11;;;;;;;6.90;3.60;;;6.40;99.90;;;;;;4964061;28;20083;-93
2022/01/23 18:35:37;;;;;;;6.18;3.55;;;6.30;99.90;;;;;;4958817;28;20049;-94
2022/01/23 18:38:09;;;;;;;6.70;3.55;;;6.30;99.90;;;;;;4965803;28;20060;-93
2022/01/23 18:40:35;;;;;;;6.28;3.30;;;6.30;99.90;;;;;;4953513;28;20037;-94